sensor_id;sensor_type;location;lat;lon;timestamp;P1;durP1;ratioP1;P2;durP2;ratioP2
20830;SDS011;10576;53.556;9.868;2022-08-21T00:01:03;5.13;;;3.50;;
20830;SDS011;10576;53.556;9.868;2022-08-21T00:03:34;6.87;;;3.37;;
20830;SDS011;10576;53.556;9.868;2022-08-21T00:05:59;6.73;;;3.57;;
20830;SDS011;10576;53.556;9.868;2022-08-21T00:08:25;5.87;;;3.50;;
20830;SDS011;10576;53.556;9.868;2022-08-21T00:10:50;5.00;;;3.40;;
20830;SDS011;10576;53.556;9.868;2022-08-21T00:13:17;6.77;;;3.70;;
20830;SDS011;10576;53.556;9.868;2022-08-21T00:15:44;6.97;;;3.63;;
20830;SDS011;10576;53.556;9.868;2022-08-21T00:18:11;4.82;;;3.40;;
20830;SDS011;10576;53.556;9.868;2022-08-21T00:20:38;4.65;;;3.63;;
20830;SDS011;10576;53.556;9.868;2022-08-21T00:23:04;6.03;;;3.72;;
20830;SDS011;10576;53.556;9.868;2022-08-21T00:25:30;4.27;;;3.53;;
20830;SDS011;10576;53.556;9.868;2022-08-21T00:27:56;5.18;;;3.72;;
20830;SDS011;10576;53.556;9.868;2022-08-21T00:30:22;4.78;;;3.40;;
20830;SDS011;10576;53.556;9.868;2022-08-21T00:32:50;6.43;;;4.20;;
20830;SDS011;10576;53.556;9.868;2022-08-21T00:35:18;6.45;;;3.80;;
20830;SDS011;10576;53.556;9.868;2022-08-21T00:37:47;5.03;;;3.53;;
20830;SDS011;10576;53.556;9.868;2022-08-21T00:40:18;4.85;;;3.80;;
20830;SDS011;10576;53.556;9.868;2022-08-21T00:42:46;6.38;;;3.55;;
20830;SDS011;10576;53.556;9.868;2022-08-21T00:45:12;6.63;;;3.80;;
20830;SDS011;10576;53.556;9.868;2022-08-21T00:47:38;4.68;;;3.60;;
20830;SDS011;10576;53.556;9.868;2022-08-21T00:50:05;5.45;;;3.58;;
20830;SDS011;10576;53.556;9.868;2022-08-21T00:52:34;5.25;;;3.55;;
20830;SDS011;10576;53.556;9.868;2022-08-21T00:55:02;5.93;;;3.70;;
20830;SDS011;10576;53.556;9.868;2022-08-21T00:57:34;9.38;;;4.07;;
20830;SDS011;10576;53.556;9.868;2022-08-21T01:00:25;5.30;;;4.00;;
20830;SDS011;10576;53.556;9.868;2022-08-21T01:02:58;5.80;;;4.05;;
20830;SDS011;10576;53.556;9.868;2022-08-21T01:05:26;5.15;;;3.95;;
20830;SDS011;10576;53.556;9.868;2022-08-21T01:07:52;5.75;;;3.80;;
20830;SDS011;10576;53.556;9.868;2022-08-21T01:10:22;5.57;;;3.88;;
20830;SDS011;10576;53.556;9.868;2022-08-21T01:12:48;5.50;;;3.87;;
20830;SDS011;10576;53.556;9.868;2022-08-21T01:15:16;4.97;;;3.85;;
20830;SDS011;10576;53.556;9.868;2022-08-21T01:17:43;5.25;;;3.92;;
20830;SDS011;10576;53.556;9.868;2022-08-21T01:20:10;5.87;;;3.90;;
20830;SDS011;10576;53.556;9.868;2022-08-21T01:22:37;7.82;;;4.35;;
20830;SDS011;10576;53.556;9.868;2022-08-21T01:25:06;6.53;;;4.40;;
20830;SDS011;10576;53.556;9.868;2022-08-21T01:27:33;7.20;;;4.07;;
20830;SDS011;10576;53.556;9.868;2022-08-21T01:30:18;6.82;;;4.20;;
20830;SDS011;10576;53.556;9.868;2022-08-21T01:32:47;4.95;;;4.00;;
20830;SDS011;10576;53.556;9.868;2022-08-21T01:35:13;6.55;;;4.50;;
20830;SDS011;10576;53.556;9.868;2022-08-21T01:37:40;5.82;;;4.20;;
20830;SDS011;10576;53.556;9.868;2022-08-21T01:40:07;4.35;;;3.95;;
20830;SDS011;10576;53.556;9.868;2022-08-21T01:42:34;5.38;;;4.40;;
20830;SDS011;10576;53.556;9.868;2022-08-21T01:45:00;6.75;;;4.30;;
20830;SDS011;10576;53.556;9.868;2022-08-21T01:47:26;5.32;;;4.38;;
20830;SDS011;10576;53.556;9.868;2022-08-21T01:49:52;5.88;;;4.40;;
20830;SDS011;10576;53.556;9.868;2022-08-21T01:52:18;6.40;;;4.60;;
20830;SDS011;10576;53.556;9.868;2022-08-21T01:54:45;7.20;;;4.35;;
20830;SDS011;10576;53.556;9.868;2022-08-21T01:57:11;7.53;;;4.40;;
20830;SDS011;10576;53.556;9.868;2022-08-21T01:59:38;8.32;;;4.50;;
20830;SDS011;10576;53.556;9.868;2022-08-21T02:02:04;4.97;;;4.13;;
20830;SDS011;10576;53.556;9.868;2022-08-21T02:04:31;6.88;;;4.30;;
20830;SDS011;10576;53.556;9.868;2022-08-21T02:06:57;7.05;;;4.30;;
20830;SDS011;10576;53.556;9.868;2022-08-21T02:09:23;7.03;;;4.32;;
20830;SDS011;10576;53.556;9.868;2022-08-21T02:11:49;4.20;;;3.80;;
20830;SDS011;10576;53.556;9.868;2022-08-21T02:14:16;6.47;;;4.13;;
20830;SDS011;10576;53.556;9.868;2022-08-21T02:16:42;6.97;;;4.03;;
20830;SDS011;10576;53.556;9.868;2022-08-21T02:19:09;7.13;;;4.15;;
20830;SDS011;10576;53.556;9.868;2022-08-21T02:21:36;5.10;;;4.00;;
20830;SDS011;10576;53.556;9.868;2022-08-21T02:24:02;7.00;;;3.97;;
20830;SDS011;10576;53.556;9.868;2022-08-21T02:26:28;4.30;;;3.90;;
20830;SDS011;10576;53.556;9.868;2022-08-21T02:28:54;4.93;;;3.90;;
20830;SDS011;10576;53.556;9.868;2022-08-21T02:31:20;6.90;;;4.23;;
20830;SDS011;10576;53.556;9.868;2022-08-21T02:33:46;6.30;;;3.92;;
20830;SDS011;10576;53.556;9.868;2022-08-21T02:36:11;5.30;;;3.88;;
20830;SDS011;10576;53.556;9.868;2022-08-21T02:38:38;6.68;;;3.83;;
20830;SDS011;10576;53.556;9.868;2022-08-21T02:41:07;4.20;;;3.63;;
20830;SDS011;10576;53.556;9.868;2022-08-21T02:43:38;6.13;;;4.00;;
20830;SDS011;10576;53.556;9.868;2022-08-21T02:46:04;6.80;;;3.97;;
20830;SDS011;10576;53.556;9.868;2022-08-21T02:48:31;5.10;;;4.07;;
20830;SDS011;10576;53.556;9.868;2022-08-21T02:50:59;8.32;;;3.70;;
20830;SDS011;10576;53.556;9.868;2022-08-21T02:53:28;4.22;;;3.78;;
20830;SDS011;10576;53.556;9.868;2022-08-21T02:55:55;5.28;;;3.92;;
20830;SDS011;10576;53.556;9.868;2022-08-21T02:58:25;4.80;;;3.80;;
20830;SDS011;10576;53.556;9.868;2022-08-21T03:00:53;4.82;;;3.90;;
20830;SDS011;10576;53.556;9.868;2022-08-21T03:03:19;6.70;;;4.35;;
20830;SDS011;10576;53.556;9.868;2022-08-21T03:05:46;7.07;;;4.13;;
20830;SDS011;10576;53.556;9.868;2022-08-21T03:08:13;4.43;;;4.00;;
20830;SDS011;10576;53.556;9.868;2022-08-21T03:10:40;6.03;;;4.07;;
20830;SDS011;10576;53.556;9.868;2022-08-21T03:13:08;6.13;;;3.72;;
20830;SDS011;10576;53.556;9.868;2022-08-21T03:15:35;4.90;;;4.00;;
20830;SDS011;10576;53.556;9.868;2022-08-21T03:18:01;5.53;;;4.05;;
20830;SDS011;10576;53.556;9.868;2022-08-21T03:20:28;5.78;;;4.15;;
20830;SDS011;10576;53.556;9.868;2022-08-21T03:22:57;5.55;;;3.70;;
20830;SDS011;10576;53.556;9.868;2022-08-21T03:25:24;4.95;;;3.72;;
20830;SDS011;10576;53.556;9.868;2022-08-21T03:27:51;5.85;;;3.70;;
20830;SDS011;10576;53.556;9.868;2022-08-21T03:30:18;4.93;;;3.92;;
20830;SDS011;10576;53.556;9.868;2022-08-21T03:32:46;5.38;;;3.83;;
20830;SDS011;10576;53.556;9.868;2022-08-21T03:35:13;5.57;;;3.80;;
20830;SDS011;10576;53.556;9.868;2022-08-21T03:37:39;6.25;;;3.70;;
20830;SDS011;10576;53.556;9.868;2022-08-21T03:40:06;5.30;;;4.00;;
20830;SDS011;10576;53.556;9.868;2022-08-21T03:42:33;6.90;;;3.95;;
20830;SDS011;10576;53.556;9.868;2022-08-21T03:44:59;5.07;;;4.13;;
20830;SDS011;10576;53.556;9.868;2022-08-21T03:47:25;4.18;;;3.78;;
20830;SDS011;10576;53.556;9.868;2022-08-21T03:49:51;5.60;;;3.93;;
20830;SDS011;10576;53.556;9.868;2022-08-21T03:52:17;5.40;;;3.93;;
20830;SDS011;10576;53.556;9.868;2022-08-21T03:54:43;4.55;;;3.75;;
20830;SDS011;10576;53.556;9.868;2022-08-21T03:57:10;6.20;;;4.18;;
20830;SDS011;10576;53.556;9.868;2022-08-21T03:59:36;7.15;;;4.10;;
20830;SDS011;10576;53.556;9.868;2022-08-21T04:02:04;4.75;;;3.97;;
20830;SDS011;10576;53.556;9.868;2022-08-21T04:04:32;5.43;;;3.60;;
20830;SDS011;10576;53.556;9.868;2022-08-21T04:06:59;4.88;;;4.05;;
20830;SDS011;10576;53.556;9.868;2022-08-21T04:09:25;5.47;;;4.13;;
20830;SDS011;10576;53.556;9.868;2022-08-21T04:11:51;5.80;;;4.13;;
20830;SDS011;10576;53.556;9.868;2022-08-21T04:14:17;6.47;;;4.00;;
20830;SDS011;10576;53.556;9.868;2022-08-21T04:16:43;5.85;;;3.97;;
20830;SDS011;10576;53.556;9.868;2022-08-21T04:19:09;4.65;;;3.92;;
20830;SDS011;10576;53.556;9.868;2022-08-21T04:21:36;5.90;;;4.15;;
20830;SDS011;10576;53.556;9.868;2022-08-21T04:24:03;6.97;;;4.45;;
20830;SDS011;10576;53.556;9.868;2022-08-21T04:26:29;6.57;;;4.37;;
20830;SDS011;10576;53.556;9.868;2022-08-21T04:28:56;6.00;;;3.90;;
20830;SDS011;10576;53.556;9.868;2022-08-21T04:31:23;7.15;;;4.25;;
20830;SDS011;10576;53.556;9.868;2022-08-21T04:33:49;5.00;;;4.30;;
20830;SDS011;10576;53.556;9.868;2022-08-21T04:36:16;5.43;;;4.20;;
20830;SDS011;10576;53.556;9.868;2022-08-21T04:38:42;6.65;;;4.65;;
20830;SDS011;10576;53.556;9.868;2022-08-21T04:41:07;7.33;;;4.57;;
20830;SDS011;10576;53.556;9.868;2022-08-21T04:43:33;6.97;;;4.53;;
20830;SDS011;10576;53.556;9.868;2022-08-21T04:45:59;5.73;;;4.20;;
20830;SDS011;10576;53.556;9.868;2022-08-21T04:48:25;5.13;;;4.10;;
20830;SDS011;10576;53.556;9.868;2022-08-21T04:56:21;5.00;;;4.20;;
20830;SDS011;10576;53.556;9.868;2022-08-21T04:58:52;5.85;;;4.07;;
20830;SDS011;10576;53.556;9.868;2022-08-21T05:01:21;6.72;;;3.95;;
20830;SDS011;10576;53.556;9.868;2022-08-21T05:03:50;6.15;;;4.00;;
20830;SDS011;10576;53.556;9.868;2022-08-21T05:06:19;6.22;;;4.10;;
20830;SDS011;10576;53.556;9.868;2022-08-21T05:08:46;6.90;;;4.33;;
20830;SDS011;10576;53.556;9.868;2022-08-21T05:11:13;6.22;;;4.03;;
20830;SDS011;10576;53.556;9.868;2022-08-21T05:13:39;5.03;;;3.87;;
20830;SDS011;10576;53.556;9.868;2022-08-21T05:16:08;6.07;;;4.03;;
20830;SDS011;10576;53.556;9.868;2022-08-21T05:18:34;5.43;;;3.92;;
20830;SDS011;10576;53.556;9.868;2022-08-21T05:21:00;5.22;;;3.80;;
20830;SDS011;10576;53.556;9.868;2022-08-21T05:23:26;5.53;;;4.00;;
20830;SDS011;10576;53.556;9.868;2022-08-21T05:25:52;7.40;;;4.03;;
20830;SDS011;10576;53.556;9.868;2022-08-21T05:28:18;7.28;;;4.15;;
20830;SDS011;10576;53.556;9.868;2022-08-21T05:30:43;5.32;;;3.80;;
20830;SDS011;10576;53.556;9.868;2022-08-21T05:33:10;5.18;;;4.13;;
20830;SDS011;10576;53.556;9.868;2022-08-21T05:35:36;5.13;;;4.05;;
20830;SDS011;10576;53.556;9.868;2022-08-21T05:38:03;5.30;;;3.90;;
20830;SDS011;10576;53.556;9.868;2022-08-21T05:40:29;4.80;;;3.70;;
20830;SDS011;10576;53.556;9.868;2022-08-21T05:42:55;6.15;;;4.30;;
20830;SDS011;10576;53.556;9.868;2022-08-21T05:45:22;4.40;;;3.70;;
20830;SDS011;10576;53.556;9.868;2022-08-21T05:47:49;6.47;;;3.95;;
20830;SDS011;10576;53.556;9.868;2022-08-21T05:50:15;4.10;;;3.67;;
20830;SDS011;10576;53.556;9.868;2022-08-21T05:52:41;5.13;;;3.80;;
20830;SDS011;10576;53.556;9.868;2022-08-21T05:55:06;6.30;;;4.00;;
20830;SDS011;10576;53.556;9.868;2022-08-21T05:57:32;4.88;;;3.65;;
20830;SDS011;10576;53.556;9.868;2022-08-21T05:59:58;4.90;;;3.45;;
20830;SDS011;10576;53.556;9.868;2022-08-21T06:02:24;4.53;;;3.35;;
20830;SDS011;10576;53.556;9.868;2022-08-21T06:04:50;4.30;;;3.37;;
20830;SDS011;10576;53.556;9.868;2022-08-21T06:07:15;4.27;;;2.93;;
20830;SDS011;10576;53.556;9.868;2022-08-21T06:09:41;3.50;;;2.77;;
20830;SDS011;10576;53.556;9.868;2022-08-21T06:12:08;4.20;;;2.30;;
20830;SDS011;10576;53.556;9.868;2022-08-21T06:14:35;4.97;;;2.30;;
20830;SDS011;10576;53.556;9.868;2022-08-21T06:17:05;3.90;;;2.20;;
20830;SDS011;10576;53.556;9.868;2022-08-21T06:19:32;2.92;;;2.20;;
20830;SDS011;10576;53.556;9.868;2022-08-21T06:21:59;3.90;;;2.20;;
20830;SDS011;10576;53.556;9.868;2022-08-21T06:24:25;2.93;;;2.10;;
20830;SDS011;10576;53.556;9.868;2022-08-21T06:26:51;4.28;;;2.20;;
20830;SDS011;10576;53.556;9.868;2022-08-21T06:29:17;4.80;;;2.00;;
20830;SDS011;10576;53.556;9.868;2022-08-21T06:31:44;3.28;;;1.90;;
20830;SDS011;10576;53.556;9.868;2022-08-21T06:34:11;2.83;;;2.20;;
20830;SDS011;10576;53.556;9.868;2022-08-21T06:36:37;3.40;;;1.92;;
20830;SDS011;10576;53.556;9.868;2022-08-21T06:39:02;4.90;;;2.00;;
20830;SDS011;10576;53.556;9.868;2022-08-21T06:41:28;4.47;;;1.90;;
20830;SDS011;10576;53.556;9.868;2022-08-21T06:43:54;5.47;;;2.08;;
20830;SDS011;10576;53.556;9.868;2022-08-21T06:46:21;3.42;;;2.00;;
20830;SDS011;10576;53.556;9.868;2022-08-21T06:48:49;2.80;;;1.90;;
20830;SDS011;10576;53.556;9.868;2022-08-21T06:51:14;3.92;;;1.83;;
20830;SDS011;10576;53.556;9.868;2022-08-21T06:53:40;3.53;;;1.98;;
20830;SDS011;10576;53.556;9.868;2022-08-21T06:56:06;3.10;;;1.60;;
20830;SDS011;10576;53.556;9.868;2022-08-21T06:58:32;2.80;;;2.30;;
20830;SDS011;10576;53.556;9.868;2022-08-21T07:00:59;4.75;;;2.20;;
20830;SDS011;10576;53.556;9.868;2022-08-21T07:03:29;4.17;;;2.20;;
20830;SDS011;10576;53.556;9.868;2022-08-21T07:05:59;4.40;;;2.17;;
20830;SDS011;10576;53.556;9.868;2022-08-21T07:08:26;4.30;;;2.03;;
20830;SDS011;10576;53.556;9.868;2022-08-21T07:10:52;3.97;;;2.20;;
20830;SDS011;10576;53.556;9.868;2022-08-21T07:13:20;3.42;;;2.13;;
20830;SDS011;10576;53.556;9.868;2022-08-21T07:15:46;5.68;;;2.22;;
20830;SDS011;10576;53.556;9.868;2022-08-21T07:18:12;3.65;;;2.10;;
20830;SDS011;10576;53.556;9.868;2022-08-21T07:20:38;3.22;;;1.85;;
20830;SDS011;10576;53.556;9.868;2022-08-21T07:23:08;4.03;;;2.20;;
20830;SDS011;10576;53.556;9.868;2022-08-21T07:25:37;5.85;;;2.35;;
20830;SDS011;10576;53.556;9.868;2022-08-21T07:28:04;6.25;;;2.45;;
20830;SDS011;10576;53.556;9.868;2022-08-21T07:30:30;5.43;;;2.25;;
20830;SDS011;10576;53.556;9.868;2022-08-21T07:32:56;3.85;;;2.20;;
20830;SDS011;10576;53.556;9.868;2022-08-21T07:35:23;3.58;;;2.03;;
20830;SDS011;10576;53.556;9.868;2022-08-21T07:37:49;4.93;;;2.10;;
20830;SDS011;10576;53.556;9.868;2022-08-21T07:40:15;4.93;;;2.10;;
20830;SDS011;10576;53.556;9.868;2022-08-21T07:42:43;6.38;;;2.30;;
20830;SDS011;10576;53.556;9.868;2022-08-21T07:45:12;4.28;;;2.08;;
20830;SDS011;10576;53.556;9.868;2022-08-21T07:47:39;5.22;;;2.10;;
20830;SDS011;10576;53.556;9.868;2022-08-21T07:50:05;7.50;;;2.30;;
20830;SDS011;10576;53.556;9.868;2022-08-21T07:52:32;5.28;;;2.17;;
20830;SDS011;10576;53.556;9.868;2022-08-21T07:54:58;6.07;;;2.28;;
20830;SDS011;10576;53.556;9.868;2022-08-21T07:57:24;6.05;;;2.00;;
20830;SDS011;10576;53.556;9.868;2022-08-21T07:59:50;3.53;;;2.10;;
20830;SDS011;10576;53.556;9.868;2022-08-21T08:02:23;4.60;;;2.17;;
20830;SDS011;10576;53.556;9.868;2022-08-21T08:04:50;4.90;;;2.10;;
20830;SDS011;10576;53.556;9.868;2022-08-21T08:07:16;5.03;;;2.40;;
20830;SDS011;10576;53.556;9.868;2022-08-21T08:09:42;4.18;;;2.17;;
20830;SDS011;10576;53.556;9.868;2022-08-21T08:12:09;5.67;;;2.30;;
20830;SDS011;10576;53.556;9.868;2022-08-21T08:14:35;4.97;;;2.08;;
20830;SDS011;10576;53.556;9.868;2022-08-21T08:17:01;6.78;;;2.53;;
20830;SDS011;10576;53.556;9.868;2022-08-21T08:19:27;5.72;;;2.30;;
20830;SDS011;10576;53.556;9.868;2022-08-21T08:21:53;3.90;;;2.40;;
20830;SDS011;10576;53.556;9.868;2022-08-21T08:24:19;3.85;;;2.15;;
20830;SDS011;10576;53.556;9.868;2022-08-21T08:26:45;5.57;;;2.30;;
20830;SDS011;10576;53.556;9.868;2022-08-21T08:29:11;6.00;;;2.80;;
20830;SDS011;10576;53.556;9.868;2022-08-21T08:31:37;4.25;;;2.40;;
20830;SDS011;10576;53.556;9.868;2022-08-21T08:34:03;5.90;;;2.65;;
20830;SDS011;10576;53.556;9.868;2022-08-21T08:36:33;4.55;;;2.60;;
20830;SDS011;10576;53.556;9.868;2022-08-21T08:39:00;4.72;;;2.70;;
20830;SDS011;10576;53.556;9.868;2022-08-21T08:41:26;5.60;;;2.60;;
20830;SDS011;10576;53.556;9.868;2022-08-21T08:43:53;6.00;;;2.50;;
20830;SDS011;10576;53.556;9.868;2022-08-21T08:46:43;7.22;;;2.80;;
20830;SDS011;10576;53.556;9.868;2022-08-21T08:51:44;5.85;;;2.63;;
20830;SDS011;10576;53.556;9.868;2022-08-21T08:54:21;4.80;;;2.60;;
20830;SDS011;10576;53.556;9.868;2022-08-21T08:56:58;8.15;;;2.90;;
20830;SDS011;10576;53.556;9.868;2022-08-21T08:59:47;6.95;;;2.60;;
20830;SDS011;10576;53.556;9.868;2022-08-21T09:02:16;7.57;;;2.53;;
20830;SDS011;10576;53.556;9.868;2022-08-21T09:04:42;5.82;;;2.50;;
20830;SDS011;10576;53.556;9.868;2022-08-21T09:12:50;9.10;;;2.78;;
20830;SDS011;10576;53.556;9.868;2022-08-21T09:17:56;7.53;;;2.67;;
20830;SDS011;10576;53.556;9.868;2022-08-21T09:26:21;10.52;;;3.10;;
20830;SDS011;10576;53.556;9.868;2022-08-21T09:28:56;6.63;;;2.70;;
20830;SDS011;10576;53.556;9.868;2022-08-21T09:31:29;6.88;;;2.75;;
20830;SDS011;10576;53.556;9.868;2022-08-21T09:34:00;6.10;;;2.73;;
20830;SDS011;10576;53.556;9.868;2022-08-21T09:39:06;8.30;;;2.92;;
20830;SDS011;10576;53.556;9.868;2022-08-21T09:41:34;3.95;;;2.50;;
20830;SDS011;10576;53.556;9.868;2022-08-21T09:44:02;7.15;;;2.88;;
20830;SDS011;10576;53.556;9.868;2022-08-21T09:46:29;4.90;;;2.65;;
20830;SDS011;10576;53.556;9.868;2022-08-21T09:48:57;8.02;;;2.90;;
20830;SDS011;10576;53.556;9.868;2022-08-21T09:51:34;6.43;;;2.78;;
20830;SDS011;10576;53.556;9.868;2022-08-21T09:56:35;6.75;;;2.67;;
20830;SDS011;10576;53.556;9.868;2022-08-21T09:59:34;7.00;;;2.97;;
20830;SDS011;10576;53.556;9.868;2022-08-21T10:02:07;7.13;;;2.55;;
20830;SDS011;10576;53.556;9.868;2022-08-21T10:04:55;5.55;;;2.70;;
20830;SDS011;10576;53.556;9.868;2022-08-21T10:07:40;5.78;;;2.50;;
20830;SDS011;10576;53.556;9.868;2022-08-21T10:10:14;5.47;;;2.70;;
20830;SDS011;10576;53.556;9.868;2022-08-21T10:15:23;7.95;;;2.70;;
20830;SDS011;10576;53.556;9.868;2022-08-21T10:20:40;6.47;;;2.45;;
20830;SDS011;10576;53.556;9.868;2022-08-21T10:26:02;7.32;;;2.78;;
20830;SDS011;10576;53.556;9.868;2022-08-21T10:31:43;4.90;;;2.40;;
20830;SDS011;10576;53.556;9.868;2022-08-21T10:39:37;4.80;;;2.28;;
20830;SDS011;10576;53.556;9.868;2022-08-21T10:53:59;4.37;;;2.20;;
20830;SDS011;10576;53.556;9.868;2022-08-21T10:56:51;4.30;;;2.20;;
20830;SDS011;10576;53.556;9.868;2022-08-21T10:59:07;6.07;;;2.38;;
20830;SDS011;10576;53.556;9.868;2022-08-21T11:01:47;3.67;;;2.35;;
20830;SDS011;10576;53.556;9.868;2022-08-21T11:04:28;3.63;;;2.20;;
20830;SDS011;10576;53.556;9.868;2022-08-21T11:10:02;5.80;;;2.22;;
20830;SDS011;10576;53.556;9.868;2022-08-21T11:12:46;3.95;;;2.38;;
20830;SDS011;10576;53.556;9.868;2022-08-21T11:17:53;5.63;;;2.30;;
20830;SDS011;10576;53.556;9.868;2022-08-21T11:20:30;6.53;;;2.45;;
20830;SDS011;10576;53.556;9.868;2022-08-21T11:23:08;3.00;;;2.10;;
20830;SDS011;10576;53.556;9.868;2022-08-21T11:25:47;4.60;;;2.13;;
20830;SDS011;10576;53.556;9.868;2022-08-21T11:31:06;4.30;;;2.13;;
20830;SDS011;10576;53.556;9.868;2022-08-21T11:38:44;3.30;;;2.03;;
20830;SDS011;10576;53.556;9.868;2022-08-21T11:41:31;4.03;;;2.00;;
20830;SDS011;10576;53.556;9.868;2022-08-21T11:47:15;3.50;;;2.20;;
20830;SDS011;10576;53.556;9.868;2022-08-21T11:50:14;4.13;;;2.42;;
20830;SDS011;10576;53.556;9.868;2022-08-21T11:53:46;3.17;;;2.20;;
20830;SDS011;10576;53.556;9.868;2022-08-21T11:58:45;5.35;;;2.35;;
20830;SDS011;10576;53.556;9.868;2022-08-21T12:01:17;4.43;;;2.20;;
20830;SDS011;10576;53.556;9.868;2022-08-21T12:03:55;5.07;;;2.40;;
20830;SDS011;10576;53.556;9.868;2022-08-21T12:06:32;4.07;;;2.47;;
20830;SDS011;10576;53.556;9.868;2022-08-21T12:09:06;3.45;;;2.20;;
20830;SDS011;10576;53.556;9.868;2022-08-21T12:11:59;4.63;;;2.30;;
20830;SDS011;10576;53.556;9.868;2022-08-21T12:14:38;3.33;;;2.00;;
20830;SDS011;10576;53.556;9.868;2022-08-21T12:17:07;5.15;;;2.10;;
20830;SDS011;10576;53.556;9.868;2022-08-21T12:19:41;2.50;;;2.03;;
20830;SDS011;10576;53.556;9.868;2022-08-21T12:29:50;3.50;;;1.88;;
20830;SDS011;10576;53.556;9.868;2022-08-21T12:32:28;4.50;;;2.30;;
20830;SDS011;10576;53.556;9.868;2022-08-21T12:39:59;4.40;;;2.13;;
20830;SDS011;10576;53.556;9.868;2022-08-21T12:42:31;2.30;;;1.60;;
20830;SDS011;10576;53.556;9.868;2022-08-21T12:45:18;2.65;;;1.70;;
20830;SDS011;10576;53.556;9.868;2022-08-21T12:47:49;2.15;;;1.80;;
20830;SDS011;10576;53.556;9.868;2022-08-21T12:50:24;1.83;;;1.60;;
20830;SDS011;10576;53.556;9.868;2022-08-21T12:53:22;2.72;;;1.60;;
20830;SDS011;10576;53.556;9.868;2022-08-21T12:56:14;2.50;;;1.77;;
20830;SDS011;10576;53.556;9.868;2022-08-21T12:58:44;1.90;;;1.67;;
20830;SDS011;10576;53.556;9.868;2022-08-21T13:04:19;3.05;;;1.65;;
20830;SDS011;10576;53.556;9.868;2022-08-21T13:07:07;1.88;;;1.40;;
20830;SDS011;10576;53.556;9.868;2022-08-21T13:09:40;2.40;;;1.60;;
20830;SDS011;10576;53.556;9.868;2022-08-21T13:12:17;2.00;;;1.55;;
20830;SDS011;10576;53.556;9.868;2022-08-21T13:14:46;2.72;;;1.60;;
20830;SDS011;10576;53.556;9.868;2022-08-21T13:17:19;2.50;;;1.60;;
20830;SDS011;10576;53.556;9.868;2022-08-21T13:19:52;3.20;;;1.50;;
20830;SDS011;10576;53.556;9.868;2022-08-21T13:22:20;3.53;;;1.60;;
20830;SDS011;10576;53.556;9.868;2022-08-21T13:24:47;2.87;;;1.80;;
20830;SDS011;10576;53.556;9.868;2022-08-21T13:27:17;2.45;;;1.65;;
20830;SDS011;10576;53.556;9.868;2022-08-21T13:30:07;2.33;;;1.60;;
20830;SDS011;10576;53.556;9.868;2022-08-21T13:32:42;2.60;;;1.50;;
20830;SDS011;10576;53.556;9.868;2022-08-21T13:35:12;1.77;;;1.50;;
20830;SDS011;10576;53.556;9.868;2022-08-21T13:37:42;2.90;;;1.60;;
20830;SDS011;10576;53.556;9.868;2022-08-21T13:40:10;4.10;;;1.70;;
20830;SDS011;10576;53.556;9.868;2022-08-21T13:42:43;2.83;;;1.83;;
20830;SDS011;10576;53.556;9.868;2022-08-21T13:45:25;3.33;;;1.58;;
20830;SDS011;10576;53.556;9.868;2022-08-21T13:48:00;2.75;;;1.65;;
20830;SDS011;10576;53.556;9.868;2022-08-21T13:50:27;3.05;;;1.55;;
20830;SDS011;10576;53.556;9.868;2022-08-21T13:53:03;3.50;;;1.80;;
20830;SDS011;10576;53.556;9.868;2022-08-21T13:55:35;2.58;;;1.60;;
20830;SDS011;10576;53.556;9.868;2022-08-21T13:58:07;2.10;;;1.70;;
20830;SDS011;10576;53.556;9.868;2022-08-21T14:00:35;2.97;;;1.48;;
20830;SDS011;10576;53.556;9.868;2022-08-21T14:03:12;4.07;;;1.67;;
20830;SDS011;10576;53.556;9.868;2022-08-21T14:06:12;3.00;;;1.58;;
20830;SDS011;10576;53.556;9.868;2022-08-21T14:08:46;2.33;;;1.60;;
20830;SDS011;10576;53.556;9.868;2022-08-21T14:11:19;1.77;;;1.50;;
20830;SDS011;10576;53.556;9.868;2022-08-21T14:13:49;2.60;;;1.60;;
20830;SDS011;10576;53.556;9.868;2022-08-21T14:16:21;2.17;;;1.50;;
20830;SDS011;10576;53.556;9.868;2022-08-21T14:21:32;3.90;;;1.52;;
20830;SDS011;10576;53.556;9.868;2022-08-21T14:24:07;4.10;;;1.77;;
20830;SDS011;10576;53.556;9.868;2022-08-21T14:26:46;2.92;;;1.60;;
20830;SDS011;10576;53.556;9.868;2022-08-21T14:29:16;4.23;;;1.73;;
20830;SDS011;10576;53.556;9.868;2022-08-21T14:31:48;2.97;;;1.60;;
20830;SDS011;10576;53.556;9.868;2022-08-21T14:34:25;4.32;;;1.80;;
20830;SDS011;10576;53.556;9.868;2022-08-21T14:36:53;3.65;;;1.60;;
20830;SDS011;10576;53.556;9.868;2022-08-21T14:39:20;6.60;;;1.80;;
20830;SDS011;10576;53.556;9.868;2022-08-21T14:41:46;2.47;;;1.60;;
20830;SDS011;10576;53.556;9.868;2022-08-21T14:44:14;2.90;;;1.50;;
20830;SDS011;10576;53.556;9.868;2022-08-21T14:46:41;5.05;;;1.50;;
20830;SDS011;10576;53.556;9.868;2022-08-21T14:49:07;3.13;;;1.70;;
20830;SDS011;10576;53.556;9.868;2022-08-21T14:51:33;3.10;;;1.60;;
20830;SDS011;10576;53.556;9.868;2022-08-21T14:53:59;3.15;;;1.55;;
20830;SDS011;10576;53.556;9.868;2022-08-21T14:56:25;3.88;;;1.75;;
20830;SDS011;10576;53.556;9.868;2022-08-21T14:58:51;3.13;;;1.48;;
20830;SDS011;10576;53.556;9.868;2022-08-21T15:01:18;2.77;;;1.53;;
20830;SDS011;10576;53.556;9.868;2022-08-21T15:03:46;3.30;;;1.60;;
20830;SDS011;10576;53.556;9.868;2022-08-21T15:06:13;3.20;;;1.60;;
20830;SDS011;10576;53.556;9.868;2022-08-21T15:08:40;3.83;;;1.75;;
20830;SDS011;10576;53.556;9.868;2022-08-21T15:11:07;4.20;;;1.60;;
20830;SDS011;10576;53.556;9.868;2022-08-21T15:13:36;3.47;;;1.60;;
20830;SDS011;10576;53.556;9.868;2022-08-21T15:16:02;2.13;;;1.50;;
20830;SDS011;10576;53.556;9.868;2022-08-21T15:18:28;2.50;;;1.35;;
20830;SDS011;10576;53.556;9.868;2022-08-21T15:20:55;3.42;;;1.75;;
20830;SDS011;10576;53.556;9.868;2022-08-21T15:23:21;3.13;;;1.40;;
20830;SDS011;10576;53.556;9.868;2022-08-21T15:25:47;3.30;;;1.60;;
20830;SDS011;10576;53.556;9.868;2022-08-21T15:28:14;2.45;;;1.50;;
20830;SDS011;10576;53.556;9.868;2022-08-21T15:30:42;3.25;;;1.55;;
20830;SDS011;10576;53.556;9.868;2022-08-21T15:33:09;3.75;;;1.48;;
20830;SDS011;10576;53.556;9.868;2022-08-21T15:35:35;3.75;;;1.50;;
20830;SDS011;10576;53.556;9.868;2022-08-21T15:38:02;1.77;;;1.42;;
20830;SDS011;10576;53.556;9.868;2022-08-21T15:40:28;8.38;;;2.13;;
20830;SDS011;10576;53.556;9.868;2022-08-21T15:42:56;3.50;;;1.60;;
20830;SDS011;10576;53.556;9.868;2022-08-21T15:45:24;3.10;;;1.70;;
20830;SDS011;10576;53.556;9.868;2022-08-21T15:47:50;4.38;;;1.67;;
20830;SDS011;10576;53.556;9.868;2022-08-21T15:50:16;4.50;;;1.70;;
20830;SDS011;10576;53.556;9.868;2022-08-21T15:52:42;4.97;;;1.58;;
20830;SDS011;10576;53.556;9.868;2022-08-21T15:55:08;4.22;;;1.75;;
20830;SDS011;10576;53.556;9.868;2022-08-21T15:57:35;3.25;;;1.58;;
20830;SDS011;10576;53.556;9.868;2022-08-21T16:00:07;2.83;;;1.40;;
20830;SDS011;10576;53.556;9.868;2022-08-21T16:02:42;2.20;;;1.40;;
20830;SDS011;10576;53.556;9.868;2022-08-21T16:05:11;4.00;;;1.80;;
20830;SDS011;10576;53.556;9.868;2022-08-21T16:07:39;2.63;;;1.52;;
20830;SDS011;10576;53.556;9.868;2022-08-21T16:10:05;3.95;;;1.60;;
20830;SDS011;10576;53.556;9.868;2022-08-21T16:12:32;3.25;;;1.60;;
20830;SDS011;10576;53.556;9.868;2022-08-21T16:15:03;3.70;;;1.60;;
20830;SDS011;10576;53.556;9.868;2022-08-21T16:17:33;3.45;;;1.50;;
20830;SDS011;10576;53.556;9.868;2022-08-21T16:20:00;4.68;;;1.80;;
20830;SDS011;10576;53.556;9.868;2022-08-21T16:22:28;2.30;;;1.48;;
20830;SDS011;10576;53.556;9.868;2022-08-21T16:24:54;1.97;;;1.40;;
20830;SDS011;10576;53.556;9.868;2022-08-21T16:27:19;2.33;;;1.60;;
20830;SDS011;10576;53.556;9.868;2022-08-21T16:29:46;5.00;;;1.98;;
20830;SDS011;10576;53.556;9.868;2022-08-21T16:32:12;3.47;;;1.60;;
20830;SDS011;10576;53.556;9.868;2022-08-21T16:34:42;3.90;;;2.00;;